sensor_id;sensor_type;location;lat;lon;timestamp;P1;durP1;ratioP1;P2;durP2;ratioP2
3849;SDS011;1940;51.052;13.678;2023-12-22T00:02:06;7.83;;;1.63;;
3849;SDS011;1940;51.052;13.678;2023-12-22T00:04:32;6.70;;;2.23;;
3849;SDS011;1940;51.052;13.678;2023-12-22T00:06:57;8.63;;;2.40;;
3849;SDS011;1940;51.052;13.678;2023-12-22T00:09:23;17.40;;;2.07;;
3849;SDS011;1940;51.052;13.678;2023-12-22T00:11:48;14.37;;;2.63;;
3849;SDS011;1940;51.052;13.678;2023-12-22T00:14:14;16.00;;;2.43;;
3849;SDS011;1940;51.052;13.678;2023-12-22T00:16:39;7.57;;;2.20;;
3849;SDS011;1940;51.052;13.678;2023-12-22T00:19:05;16.60;;;2.70;;
3849;SDS011;1940;51.052;13.678;2023-12-22T00:21:30;13.00;;;2.90;;
3849;SDS011;1940;51.052;13.678;2023-12-22T00:23:56;6.60;;;2.43;;
3849;SDS011;1940;51.052;13.678;2023-12-22T00:26:22;8.40;;;2.20;;
3849;SDS011;1940;51.052;13.678;2023-12-22T00:28:48;14.57;;;2.67;;
3849;SDS011;1940;51.052;13.678;2023-12-22T00:31:13;16.83;;;4.00;;
3849;SDS011;1940;51.052;13.678;2023-12-22T00:33:39;21.40;;;3.30;;
3849;SDS011;1940;51.052;13.678;2023-12-22T00:36:04;12.57;;;3.10;;
3849;SDS011;1940;51.052;13.678;2023-12-22T00:38:30;14.33;;;3.30;;
3849;SDS011;1940;51.052;13.678;2023-12-22T00:40:56;13.03;;;2.50;;
3849;SDS011;1940;51.052;13.678;2023-12-22T00:43:21;13.83;;;2.50;;
3849;SDS011;1940;51.052;13.678;2023-12-22T00:45:47;10.40;;;2.30;;
3849;SDS011;1940;51.052;13.678;2023-12-22T00:48:12;11.63;;;2.50;;
3849;SDS011;1940;51.052;13.678;2023-12-22T00:50:38;15.90;;;2.67;;
3849;SDS011;1940;51.052;13.678;2023-12-22T00:53:03;15.70;;;2.60;;
3849;SDS011;1940;51.052;13.678;2023-12-22T00:55:29;15.63;;;2.73;;
3849;SDS011;1940;51.052;13.678;2023-12-22T00:57:54;26.60;;;2.93;;
3849;SDS011;1940;51.052;13.678;2023-12-22T01:00:20;12.27;;;2.33;;
3849;SDS011;1940;51.052;13.678;2023-12-22T01:02:45;13.23;;;2.37;;
3849;SDS011;1940;51.052;13.678;2023-12-22T01:05:11;14.17;;;2.00;;
3849;SDS011;1940;51.052;13.678;2023-12-22T01:07:36;7.60;;;2.33;;
3849;SDS011;1940;51.052;13.678;2023-12-22T01:10:02;7.50;;;2.17;;
3849;SDS011;1940;51.052;13.678;2023-12-22T01:12:28;12.43;;;2.43;;
3849;SDS011;1940;51.052;13.678;2023-12-22T01:14:55;11.70;;;2.00;;
3849;SDS011;1940;51.052;13.678;2023-12-22T01:17:21;9.10;;;1.97;;
3849;SDS011;1940;51.052;13.678;2023-12-22T01:19:46;11.53;;;3.50;;
3849;SDS011;1940;51.052;13.678;2023-12-22T01:22:12;8.27;;;2.47;;
3849;SDS011;1940;51.052;13.678;2023-12-22T01:24:37;6.93;;;1.53;;
3849;SDS011;1940;51.052;13.678;2023-12-22T01:27:05;11.00;;;3.00;;
3849;SDS011;1940;51.052;13.678;2023-12-22T01:29:31;8.57;;;2.30;;
3849;SDS011;1940;51.052;13.678;2023-12-22T01:31:57;12.40;;;2.20;;
3849;SDS011;1940;51.052;13.678;2023-12-22T01:34:22;17.00;;;2.63;;
3849;SDS011;1940;51.052;13.678;2023-12-22T01:36:48;15.40;;;3.20;;
3849;SDS011;1940;51.052;13.678;2023-12-22T01:39:14;13.33;;;2.70;;
3849;SDS011;1940;51.052;13.678;2023-12-22T01:41:40;19.00;;;2.87;;
3849;SDS011;1940;51.052;13.678;2023-12-22T01:44:06;12.17;;;2.50;;
3849;SDS011;1940;51.052;13.678;2023-12-22T01:46:31;12.07;;;2.60;;
3849;SDS011;1940;51.052;13.678;2023-12-22T01:48:59;10.23;;;2.30;;
3849;SDS011;1940;51.052;13.678;2023-12-22T01:51:26;13.30;;;2.97;;
3849;SDS011;1940;51.052;13.678;2023-12-22T01:53:53;7.10;;;2.10;;
3849;SDS011;1940;51.052;13.678;2023-12-22T01:56:19;9.73;;;2.40;;
3849;SDS011;1940;51.052;13.678;2023-12-22T01:58:45;10.23;;;2.50;;
3849;SDS011;1940;51.052;13.678;2023-12-22T02:01:11;12.10;;;2.63;;
3849;SDS011;1940;51.052;13.678;2023-12-22T02:03:37;15.70;;;2.50;;
3849;SDS011;1940;51.052;13.678;2023-12-22T02:06:03;15.60;;;2.70;;
3849;SDS011;1940;51.052;13.678;2023-12-22T02:08:31;9.87;;;2.67;;
3849;SDS011;1940;51.052;13.678;2023-12-22T02:10:58;13.73;;;2.70;;
3849;SDS011;1940;51.052;13.678;2023-12-22T02:13:23;23.03;;;4.40;;
3849;SDS011;1940;51.052;13.678;2023-12-22T02:15:51;9.30;;;2.57;;
3849;SDS011;1940;51.052;13.678;2023-12-22T02:18:26;22.20;;;3.97;;
3849;SDS011;1940;51.052;13.678;2023-12-22T02:20:58;9.47;;;2.33;;
3849;SDS011;1940;51.052;13.678;2023-12-22T02:23:23;16.37;;;2.80;;
3849;SDS011;1940;51.052;13.678;2023-12-22T02:25:49;6.60;;;2.20;;
3849;SDS011;1940;51.052;13.678;2023-12-22T02:28:22;15.10;;;2.73;;
3849;SDS011;1940;51.052;13.678;2023-12-22T02:30:54;13.13;;;3.10;;
3849;SDS011;1940;51.052;13.678;2023-12-22T02:33:38;14.47;;;3.10;;
3849;SDS011;1940;51.052;13.678;2023-12-22T02:36:06;15.37;;;3.20;;
3849;SDS011;1940;51.052;13.678;2023-12-22T02:38:34;15.10;;;4.13;;
3849;SDS011;1940;51.052;13.678;2023-12-22T02:41:01;21.57;;;2.83;;
3849;SDS011;1940;51.052;13.678;2023-12-22T02:43:27;11.60;;;3.07;;
3849;SDS011;1940;51.052;13.678;2023-12-22T02:45:54;19.27;;;3.10;;
3849;SDS011;1940;51.052;13.678;2023-12-22T02:48:19;18.90;;;3.13;;
3849;SDS011;1940;51.052;13.678;2023-12-22T02:50:44;13.73;;;2.97;;
3849;SDS011;1940;51.052;13.678;2023-12-22T02:53:10;17.37;;;3.40;;
3849;SDS011;1940;51.052;13.678;2023-12-22T02:55:35;16.07;;;3.40;;
3849;SDS011;1940;51.052;13.678;2023-12-22T02:58:01;14.63;;;3.60;;
3849;SDS011;1940;51.052;13.678;2023-12-22T03:00:26;8.73;;;2.50;;
3849;SDS011;1940;51.052;13.678;2023-12-22T03:02:52;18.83;;;3.00;;
3849;SDS011;1940;51.052;13.678;2023-12-22T03:05:17;10.10;;;2.60;;
3849;SDS011;1940;51.052;13.678;2023-12-22T03:07:43;11.67;;;2.93;;
3849;SDS011;1940;51.052;13.678;2023-12-22T03:10:08;11.77;;;3.17;;
3849;SDS011;1940;51.052;13.678;2023-12-22T03:12:33;18.30;;;3.10;;
3849;SDS011;1940;51.052;13.678;2023-12-22T03:14:59;17.07;;;3.87;;
3849;SDS011;1940;51.052;13.678;2023-12-22T03:17:24;19.63;;;3.70;;
3849;SDS011;1940;51.052;13.678;2023-12-22T03:19:50;18.20;;;2.70;;
3849;SDS011;1940;51.052;13.678;2023-12-22T03:22:15;14.97;;;3.03;;
3849;SDS011;1940;51.052;13.678;2023-12-22T03:24:41;22.20;;;3.43;;
3849;SDS011;1940;51.052;13.678;2023-12-22T03:27:06;16.33;;;2.90;;
3849;SDS011;1940;51.052;13.678;2023-12-22T03:29:32;13.40;;;2.70;;
3849;SDS011;1940;51.052;13.678;2023-12-22T03:31:57;14.33;;;2.37;;
3849;SDS011;1940;51.052;13.678;2023-12-22T03:34:23;18.23;;;3.00;;
3849;SDS011;1940;51.052;13.678;2023-12-22T03:36:48;16.43;;;3.00;;
3849;SDS011;1940;51.052;13.678;2023-12-22T03:39:14;14.87;;;3.23;;
3849;SDS011;1940;51.052;13.678;2023-12-22T03:41:40;11.17;;;3.10;;
3849;SDS011;1940;51.052;13.678;2023-12-22T03:44:06;13.17;;;2.53;;
3849;SDS011;1940;51.052;13.678;2023-12-22T03:46:31;15.57;;;2.80;;
3849;SDS011;1940;51.052;13.678;2023-12-22T03:48:58;16.83;;;3.60;;
3849;SDS011;1940;51.052;13.678;2023-12-22T03:51:24;13.13;;;2.50;;
3849;SDS011;1940;51.052;13.678;2023-12-22T03:53:49;8.87;;;2.30;;
3849;SDS011;1940;51.052;13.678;2023-12-22T03:56:14;10.60;;;2.50;;
3849;SDS011;1940;51.052;13.678;2023-12-22T03:58:40;11.90;;;2.63;;
3849;SDS011;1940;51.052;13.678;2023-12-22T04:01:05;11.87;;;2.40;;
3849;SDS011;1940;51.052;13.678;2023-12-22T04:03:34;11.20;;;3.03;;
3849;SDS011;1940;51.052;13.678;2023-12-22T04:06:03;8.63;;;2.93;;
3849;SDS011;1940;51.052;13.678;2023-12-22T04:08:28;11.33;;;2.33;;
3849;SDS011;1940;51.052;13.678;2023-12-22T04:10:54;6.57;;;1.77;;
3849;SDS011;1940;51.052;13.678;2023-12-22T04:13:19;14.97;;;2.30;;
3849;SDS011;1940;51.052;13.678;2023-12-22T04:15:45;14.90;;;2.57;;
3849;SDS011;1940;51.052;13.678;2023-12-22T04:18:10;17.23;;;3.07;;
3849;SDS011;1940;51.052;13.678;2023-12-22T04:20:36;6.00;;;1.80;;
3849;SDS011;1940;51.052;13.678;2023-12-22T04:23:01;8.83;;;1.80;;
3849;SDS011;1940;51.052;13.678;2023-12-22T04:25:27;10.47;;;1.97;;
3849;SDS011;1940;51.052;13.678;2023-12-22T04:27:52;12.47;;;2.80;;
3849;SDS011;1940;51.052;13.678;2023-12-22T04:30:18;13.43;;;2.43;;
3849;SDS011;1940;51.052;13.678;2023-12-22T04:32:43;7.00;;;1.60;;
3849;SDS011;1940;51.052;13.678;2023-12-22T04:35:09;15.43;;;1.77;;
3849;SDS011;1940;51.052;13.678;2023-12-22T04:37:34;7.30;;;1.73;;
3849;SDS011;1940;51.052;13.678;2023-12-22T04:40:00;9.97;;;2.20;;
3849;SDS011;1940;51.052;13.678;2023-12-22T04:42:25;9.27;;;2.10;;
3849;SDS011;1940;51.052;13.678;2023-12-22T04:44:51;18.30;;;2.33;;
3849;SDS011;1940;51.052;13.678;2023-12-22T04:47:17;5.33;;;1.30;;
3849;SDS011;1940;51.052;13.678;2023-12-22T04:49:43;5.63;;;2.03;;
3849;SDS011;1940;51.052;13.678;2023-12-22T04:52:08;8.23;;;2.17;;
3849;SDS011;1940;51.052;13.678;2023-12-22T04:54:34;11.43;;;1.90;;
3849;SDS011;1940;51.052;13.678;2023-12-22T04:57:00;6.70;;;1.60;;
3849;SDS011;1940;51.052;13.678;2023-12-22T04:59:26;4.40;;;1.60;;
3849;SDS011;1940;51.052;13.678;2023-12-22T05:01:51;7.80;;;1.70;;
3849;SDS011;1940;51.052;13.678;2023-12-22T05:04:16;8.00;;;1.10;;
3849;SDS011;1940;51.052;13.678;2023-12-22T05:06:43;3.87;;;1.20;;
3849;SDS011;1940;51.052;13.678;2023-12-22T05:09:10;4.77;;;1.20;;
3849;SDS011;1940;51.052;13.678;2023-12-22T05:11:36;6.53;;;1.17;;
3849;SDS011;1940;51.052;13.678;2023-12-22T05:14:01;2.00;;;1.00;;
3849;SDS011;1940;51.052;13.678;2023-12-22T05:16:27;3.10;;;1.00;;
3849;SDS011;1940;51.052;13.678;2023-12-22T05:18:54;3.07;;;1.30;;
3849;SDS011;1940;51.052;13.678;2023-12-22T05:21:19;2.70;;;1.00;;
3849;SDS011;1940;51.052;13.678;2023-12-22T05:23:46;1.90;;;0.83;;
3849;SDS011;1940;51.052;13.678;2023-12-22T05:26:15;2.70;;;0.90;;
3849;SDS011;1940;51.052;13.678;2023-12-22T05:28:42;4.63;;;1.00;;
3849;SDS011;1940;51.052;13.678;2023-12-22T05:31:08;5.83;;;1.07;;
3849;SDS011;1940;51.052;13.678;2023-12-22T05:33:33;8.33;;;1.33;;
3849;SDS011;1940;51.052;13.678;2023-12-22T05:35:59;3.10;;;1.70;;
3849;SDS011;1940;51.052;13.678;2023-12-22T05:38:24;2.93;;;1.10;;
3849;SDS011;1940;51.052;13.678;2023-12-22T05:40:50;3.97;;;1.20;;
3849;SDS011;1940;51.052;13.678;2023-12-22T05:43:15;2.27;;;1.43;;
3849;SDS011;1940;51.052;13.678;2023-12-22T05:45:41;6.63;;;1.97;;
3849;SDS011;1940;51.052;13.678;2023-12-22T05:48:06;2.87;;;1.27;;
3849;SDS011;1940;51.052;13.678;2023-12-22T05:50:32;11.33;;;1.40;;
3849;SDS011;1940;51.052;13.678;2023-12-22T05:52:57;5.70;;;1.50;;
3849;SDS011;1940;51.052;13.678;2023-12-22T05:55:23;5.60;;;1.63;;
3849;SDS011;1940;51.052;13.678;2023-12-22T05:57:48;19.63;;;1.90;;
3849;SDS011;1940;51.052;13.678;2023-12-22T06:00:14;5.70;;;1.37;;
3849;SDS011;1940;51.052;13.678;2023-12-22T06:02:40;6.30;;;1.57;;
3849;SDS011;1940;51.052;13.678;2023-12-22T06:05:06;4.40;;;1.23;;
3849;SDS011;1940;51.052;13.678;2023-12-22T06:07:31;6.50;;;1.97;;
3849;SDS011;1940;51.052;13.678;2023-12-22T06:09:58;8.63;;;1.50;;
3849;SDS011;1940;51.052;13.678;2023-12-22T06:12:23;5.57;;;1.73;;
3849;SDS011;1940;51.052;13.678;2023-12-22T06:14:49;8.20;;;1.73;;
3849;SDS011;1940;51.052;13.678;2023-12-22T06:17:14;4.13;;;1.40;;
3849;SDS011;1940;51.052;13.678;2023-12-22T06:19:39;3.80;;;1.47;;
3849;SDS011;1940;51.052;13.678;2023-12-22T06:22:05;6.03;;;1.30;;
3849;SDS011;1940;51.052;13.678;2023-12-22T06:24:30;6.40;;;1.30;;
3849;SDS011;1940;51.052;13.678;2023-12-22T06:26:56;7.30;;;1.70;;
3849;SDS011;1940;51.052;13.678;2023-12-22T06:29:21;5.40;;;1.23;;
3849;SDS011;1940;51.052;13.678;2023-12-22T06:31:48;6.80;;;2.00;;
3849;SDS011;1940;51.052;13.678;2023-12-22T06:34:19;5.10;;;1.37;;
3849;SDS011;1940;51.052;13.678;2023-12-22T06:36:44;4.47;;;1.43;;
3849;SDS011;1940;51.052;13.678;2023-12-22T06:39:10;10.67;;;1.73;;
3849;SDS011;1940;51.052;13.678;2023-12-22T06:41:35;9.80;;;2.57;;
3849;SDS011;1940;51.052;13.678;2023-12-22T06:44:01;10.53;;;1.80;;
3849;SDS011;1940;51.052;13.678;2023-12-22T06:46:26;7.93;;;1.40;;
3849;SDS011;1940;51.052;13.678;2023-12-22T06:48:54;5.07;;;1.37;;
3849;SDS011;1940;51.052;13.678;2023-12-22T06:53:53;6.30;;;1.70;;
3849;SDS011;1940;51.052;13.678;2023-12-22T06:56:20;7.67;;;2.30;;
3849;SDS011;1940;51.052;13.678;2023-12-22T06:58:47;8.17;;;1.60;;
3849;SDS011;1940;51.052;13.678;2023-12-22T07:01:17;4.77;;;1.87;;
3849;SDS011;1940;51.052;13.678;2023-12-22T07:03:47;9.53;;;1.63;;
3849;SDS011;1940;51.052;13.678;2023-12-22T07:06:17;6.67;;;1.50;;
3849;SDS011;1940;51.052;13.678;2023-12-22T07:08:43;5.03;;;1.70;;
3849;SDS011;1940;51.052;13.678;2023-12-22T07:11:09;9.53;;;1.40;;
3849;SDS011;1940;51.052;13.678;2023-12-22T07:13:35;4.77;;;1.30;;
3849;SDS011;1940;51.052;13.678;2023-12-22T07:16:01;6.77;;;1.40;;
3849;SDS011;1940;51.052;13.678;2023-12-22T07:18:27;7.17;;;1.70;;
3849;SDS011;1940;51.052;13.678;2023-12-22T07:20:56;4.60;;;1.40;;
3849;SDS011;1940;51.052;13.678;2023-12-22T07:23:22;7.23;;;1.30;;
3849;SDS011;1940;51.052;13.678;2023-12-22T07:25:48;8.33;;;1.30;;
3849;SDS011;1940;51.052;13.678;2023-12-22T07:28:13;4.33;;;1.30;;
3849;SDS011;1940;51.052;13.678;2023-12-22T07:30:38;6.60;;;1.57;;
3849;SDS011;1940;51.052;13.678;2023-12-22T07:33:04;7.73;;;1.50;;
3849;SDS011;1940;51.052;13.678;2023-12-22T07:35:30;10.80;;;2.10;;
3849;SDS011;1940;51.052;13.678;2023-12-22T07:37:55;6.00;;;1.23;;
3849;SDS011;1940;51.052;13.678;2023-12-22T07:40:21;3.73;;;1.40;;
3849;SDS011;1940;51.052;13.678;2023-12-22T07:42:46;4.63;;;1.80;;
3849;SDS011;1940;51.052;13.678;2023-12-22T07:45:12;10.03;;;1.70;;
3849;SDS011;1940;51.052;13.678;2023-12-22T07:47:37;5.67;;;1.77;;
3849;SDS011;1940;51.052;13.678;2023-12-22T07:50:03;6.30;;;1.23;;
3849;SDS011;1940;51.052;13.678;2023-12-22T07:52:33;12.37;;;2.13;;
3849;SDS011;1940;51.052;13.678;2023-12-22T07:54:58;6.83;;;1.90;;
3849;SDS011;1940;51.052;13.678;2023-12-22T07:57:24;4.57;;;1.60;;
3849;SDS011;1940;51.052;13.678;2023-12-22T07:59:49;6.07;;;1.77;;
3849;SDS011;1940;51.052;13.678;2023-12-22T08:02:15;8.70;;;1.83;;
3849;SDS011;1940;51.052;13.678;2023-12-22T08:04:40;8.17;;;2.00;;
3849;SDS011;1940;51.052;13.678;2023-12-22T08:07:06;4.33;;;1.40;;
3849;SDS011;1940;51.052;13.678;2023-12-22T08:09:31;5.07;;;1.70;;
3849;SDS011;1940;51.052;13.678;2023-12-22T08:11:57;3.40;;;1.50;;
3849;SDS011;1940;51.052;13.678;2023-12-22T08:14:23;1.87;;;1.07;;
3849;SDS011;1940;51.052;13.678;2023-12-22T08:16:48;1.53;;;0.80;;
3849;SDS011;1940;51.052;13.678;2023-12-22T08:19:14;2.13;;;0.83;;
3849;SDS011;1940;51.052;13.678;2023-12-22T08:21:39;1.20;;;0.70;;
3849;SDS011;1940;51.052;13.678;2023-12-22T08:24:07;0.80;;;0.60;;
3849;SDS011;1940;51.052;13.678;2023-12-22T08:26:33;1.13;;;0.80;;
3849;SDS011;1940;51.052;13.678;2023-12-22T08:28:58;1.83;;;1.00;;
3849;SDS011;1940;51.052;13.678;2023-12-22T08:31:24;1.10;;;1.00;;
3849;SDS011;1940;51.052;13.678;2023-12-22T08:33:49;2.70;;;1.40;;
3849;SDS011;1940;51.052;13.678;2023-12-22T08:36:14;3.83;;;1.53;;
3849;SDS011;1940;51.052;13.678;2023-12-22T08:38:40;5.43;;;1.10;;
3849;SDS011;1940;51.052;13.678;2023-12-22T08:41:06;2.40;;;1.50;;
3849;SDS011;1940;51.052;13.678;2023-12-22T08:43:33;2.50;;;1.17;;
3849;SDS011;1940;51.052;13.678;2023-12-22T08:45:58;1.60;;;1.17;;
3849;SDS011;1940;51.052;13.678;2023-12-22T08:48:23;5.23;;;1.50;;
3849;SDS011;1940;51.052;13.678;2023-12-22T08:50:49;6.97;;;2.20;;
3849;SDS011;1940;51.052;13.678;2023-12-22T08:53:15;5.43;;;1.97;;
3849;SDS011;1940;51.052;13.678;2023-12-22T08:55:40;7.17;;;1.80;;
3849;SDS011;1940;51.052;13.678;2023-12-22T08:58:06;8.07;;;2.57;;
3849;SDS011;1940;51.052;13.678;2023-12-22T09:00:31;7.83;;;2.60;;
3849;SDS011;1940;51.052;13.678;2023-12-22T09:02:57;15.90;;;2.70;;
3849;SDS011;1940;51.052;13.678;2023-12-22T09:05:22;5.77;;;2.63;;
3849;SDS011;1940;51.052;13.678;2023-12-22T09:07:47;14.23;;;3.40;;
3849;SDS011;1940;51.052;13.678;2023-12-22T09:10:13;22.90;;;2.60;;
3849;SDS011;1940;51.052;13.678;2023-12-22T09:12:38;10.30;;;2.30;;
3849;SDS011;1940;51.052;13.678;2023-12-22T09:15:04;5.30;;;2.03;;
3849;SDS011;1940;51.052;13.678;2023-12-22T09:17:29;3.40;;;2.00;;
3849;SDS011;1940;51.052;13.678;2023-12-22T09:19:55;2.80;;;1.47;;
3849;SDS011;1940;51.052;13.678;2023-12-22T09:22:20;8.73;;;1.20;;
3849;SDS011;1940;51.052;13.678;2023-12-22T09:24:46;8.90;;;1.50;;
3849;SDS011;1940;51.052;13.678;2023-12-22T09:27:12;5.03;;;1.30;;
3849;SDS011;1940;51.052;13.678;2023-12-22T09:29:37;3.57;;;1.10;;
3849;SDS011;1940;51.052;13.678;2023-12-22T09:32:03;7.80;;;1.80;;
3849;SDS011;1940;51.052;13.678;2023-12-22T09:34:29;2.97;;;1.70;;
3849;SDS011;1940;51.052;13.678;2023-12-22T09:36:54;3.30;;;1.50;;
3849;SDS011;1940;51.052;13.678;2023-12-22T09:39:20;2.93;;;1.50;;
3849;SDS011;1940;51.052;13.678;2023-12-22T09:41:47;4.73;;;1.50;;
3849;SDS011;1940;51.052;13.678;2023-12-22T09:44:20;3.00;;;1.50;;
3849;SDS011;1940;51.052;13.678;2023-12-22T09:46:49;6.27;;;1.53;;
3849;SDS011;1940;51.052;13.678;2023-12-22T09:49:18;2.70;;;1.20;;
3849;SDS011;1940;51.052;13.678;2023-12-22T09:51:45;5.20;;;1.53;;
3849;SDS011;1940;51.052;13.678;2023-12-22T09:54:11;4.33;;;1.50;;
3849;SDS011;1940;51.052;13.678;2023-12-22T09:56:38;8.03;;;1.60;;
3849;SDS011;1940;51.052;13.678;2023-12-22T09:59:09;6.40;;;1.10;;
3849;SDS011;1940;51.052;13.678;2023-12-22T10:01:37;2.83;;;1.30;;
3849;SDS011;1940;51.052;13.678;2023-12-22T10:04:08;12.47;;;1.67;;
3849;SDS011;1940;51.052;13.678;2023-12-22T10:06:33;3.83;;;1.17;;
3849;SDS011;1940;51.052;13.678;2023-12-22T10:08:59;4.80;;;1.37;;
3849;SDS011;1940;51.052;13.678;2023-12-22T10:11:26;3.20;;;1.03;;
3849;SDS011;1940;51.052;13.678;2023-12-22T10:13:53;4.20;;;1.57;;
3849;SDS011;1940;51.052;13.678;2023-12-22T10:16:20;4.67;;;1.40;;
3849;SDS011;1940;51.052;13.678;2023-12-22T10:18:46;9.80;;;1.63;;
3849;SDS011;1940;51.052;13.678;2023-12-22T10:21:12;4.80;;;1.10;;
3849;SDS011;1940;51.052;13.678;2023-12-22T10:23:37;2.13;;;1.00;;
3849;SDS011;1940;51.052;13.678;2023-12-22T10:26:03;4.97;;;0.97;;
3849;SDS011;1940;51.052;13.678;2023-12-22T10:28:28;4.47;;;1.23;;
3849;SDS011;1940;51.052;13.678;2023-12-22T10:30:54;5.77;;;1.10;;
3849;SDS011;1940;51.052;13.678;2023-12-22T10:33:21;8.20;;;1.33;;
3849;SDS011;1940;51.052;13.678;2023-12-22T10:35:46;1.60;;;1.03;;
3849;SDS011;1940;51.052;13.678;2023-12-22T10:38:14;3.67;;;0.90;;
3849;SDS011;1940;51.052;13.678;2023-12-22T10:40:42;3.83;;;1.27;;
3849;SDS011;1940;51.052;13.678;2023-12-22T10:43:10;4.23;;;1.30;;
3849;SDS011;1940;51.052;13.678;2023-12-22T10:45:35;2.83;;;1.10;;
3849;SDS011;1940;51.052;13.678;2023-12-22T10:48:01;4.37;;;1.20;;
3849;SDS011;1940;51.052;13.678;2023-12-22T10:50:26;6.43;;;1.20;;
3849;SDS011;1940;51.052;13.678;2023-12-22T10:52:53;2.40;;;1.27;;
3849;SDS011;1940;51.052;13.678;2023-12-22T10:55:18;6.93;;;1.37;;
3849;SDS011;1940;51.052;13.678;2023-12-22T10:57:47;10.10;;;1.40;;
3849;SDS011;1940;51.052;13.678;2023-12-22T11:00:14;2.07;;;0.93;;
3849;SDS011;1940;51.052;13.678;2023-12-22T11:02:41;3.23;;;1.13;;
3849;SDS011;1940;51.052;13.678;2023-12-22T11:05:09;1.23;;;0.80;;
3849;SDS011;1940;51.052;13.678;2023-12-22T11:07:37;4.40;;;1.20;;
3849;SDS011;1940;51.052;13.678;2023-12-22T11:10:04;2.70;;;1.10;;
3849;SDS011;1940;51.052;13.678;2023-12-22T11:12:32;2.00;;;0.90;;
3849;SDS011;1940;51.052;13.678;2023-12-22T11:15:00;3.23;;;1.10;;
3849;SDS011;1940;51.052;13.678;2023-12-22T11:17:28;2.83;;;1.03;;
3849;SDS011;1940;51.052;13.678;2023-12-22T11:19:55;2.00;;;1.10;;
3849;SDS011;1940;51.052;13.678;2023-12-22T11:22:21;4.53;;;1.50;;
3849;SDS011;1940;51.052;13.678;2023-12-22T11:24:47;1.30;;;1.00;;
3849;SDS011;1940;51.052;13.678;2023-12-22T11:27:16;6.27;;;1.30;;
3849;SDS011;1940;51.052;13.678;2023-12-22T11:29:43;3.33;;;1.20;;
3849;SDS011;1940;51.052;13.678;2023-12-22T11:32:13;5.00;;;1.27;;
3849;SDS011;1940;51.052;13.678;2023-12-22T11:34:39;2.70;;;1.20;;
3849;SDS011;1940;51.052;13.678;2023-12-22T11:37:09;2.40;;;1.30;;
3849;SDS011;1940;51.052;13.678;2023-12-22T11:39:37;4.87;;;1.03;;
3849;SDS011;1940;51.052;13.678;2023-12-22T11:42:04;6.83;;;1.33;;
3849;SDS011;1940;51.052;13.678;2023-12-22T11:44:32;6.73;;;1.37;;
3849;SDS011;1940;51.052;13.678;2023-12-22T11:47:09;3.43;;;1.10;;
3849;SDS011;1940;51.052;13.678;2023-12-22T11:49:35;3.13;;;1.10;;
3849;SDS011;1940;51.052;13.678;2023-12-22T11:52:24;8.63;;;1.60;;
3849;SDS011;1940;51.052;13.678;2023-12-22T11:54:51;3.67;;;1.33;;
3849;SDS011;1940;51.052;13.678;2023-12-22T11:57:28;12.93;;;1.70;;
3849;SDS011;1940;51.052;13.678;2023-12-22T12:00:05;5.23;;;1.50;;
3849;SDS011;1940;51.052;13.678;2023-12-22T12:02:56;3.23;;;1.27;;
3849;SDS011;1940;51.052;13.678;2023-12-22T12:05:22;3.53;;;1.67;;
3849;SDS011;1940;51.052;13.678;2023-12-22T12:07:48;8.57;;;1.53;;
3849;SDS011;1940;51.052;13.678;2023-12-22T12:13:17;9.63;;;1.60;;
3849;SDS011;1940;51.052;13.678;2023-12-22T12:15:47;3.27;;;1.20;;
3849;SDS011;1940;51.052;13.678;2023-12-22T12:18:15;5.27;;;1.90;;
3849;SDS011;1940;51.052;13.678;2023-12-22T12:20:47;5.30;;;1.70;;
3849;SDS011;1940;51.052;13.678;2023-12-22T12:23:14;4.00;;;1.13;;
3849;SDS011;1940;51.052;13.678;2023-12-22T12:25:40;5.60;;;1.30;;
3849;SDS011;1940;51.052;13.678;2023-12-22T12:28:07;4.27;;;1.60;;
3849;SDS011;1940;51.052;13.678;2023-12-22T12:30:35;3.07;;;1.10;;
3849;SDS011;1940;51.052;13.678;2023-12-22T12:33:06;3.47;;;1.37;;
3849;SDS011;1940;51.052;13.678;2023-12-22T12:35:35;6.90;;;1.30;;
3849;SDS011;1940;51.052;13.678;2023-12-22T12:38:02;4.63;;;1.63;;
3849;SDS011;1940;51.052;13.678;2023-12-22T12:40:28;6.77;;;1.40;;
3849;SDS011;1940;51.052;13.678;2023-12-22T12:42:55;4.00;;;1.40;;
3849;SDS011;1940;51.052;13.678;2023-12-22T12:45:21;6.67;;;1.63;;
3849;SDS011;1940;51.052;13.678;2023-12-22T12:48:01;2.60;;;1.33;;
3849;SDS011;1940;51.052;13.678;2023-12-22T12:50:28;1.73;;;1.13;;
3849;SDS011;1940;51.052;13.678;2023-12-22T12:52:54;2.73;;;1.17;;
3849;SDS011;1940;51.052;13.678;2023-12-22T12:55:20;3.10;;;1.10;;
3849;SDS011;1940;51.052;13.678;2023-12-22T12:57:50;7.30;;;1.90;;
3849;SDS011;1940;51.052;13.678;2023-12-22T13:00:26;16.63;;;2.70;;
3849;SDS011;1940;51.052;13.678;2023-12-22T13:03:01;2.93;;;1.23;;
3849;SDS011;1940;51.052;13.678;2023-12-22T13:05:29;5.27;;;1.93;;
3849;SDS011;1940;51.052;13.678;2023-12-22T13:08:05;6.20;;;1.40;;
3849;SDS011;1940;51.052;13.678;2023-12-22T13:10:35;3.83;;;0.90;;
3849;SDS011;1940;51.052;13.678;2023-12-22T13:13:01;5.50;;;1.47;;
3849;SDS011;1940;51.052;13.678;2023-12-22T13:15:26;3.83;;;1.43;;
3849;SDS011;1940;51.052;13.678;2023-12-22T13:17:52;2.60;;;1.07;;
3849;SDS011;1940;51.052;13.678;2023-12-22T13:20:17;2.77;;;1.00;;
3849;SDS011;1940;51.052;13.678;2023-12-22T13:22:43;3.13;;;0.90;;
3849;SDS011;1940;51.052;13.678;2023-12-22T13:25:09;2.93;;;1.30;;
3849;SDS011;1940;51.052;13.678;2023-12-22T13:27:48;3.00;;;1.07;;
3849;SDS011;1940;51.052;13.678;2023-12-22T13:33:01;3.27;;;1.10;;
3849;SDS011;1940;51.052;13.678;2023-12-22T13:35:27;2.97;;;0.80;;
3849;SDS011;1940;51.052;13.678;2023-12-22T13:37:53;7.90;;;1.33;;
3849;SDS011;1940;51.052;13.678;2023-12-22T13:40:19;1.63;;;0.90;;
3849;SDS011;1940;51.052;13.678;2023-12-22T13:42:45;1.43;;;0.90;;
3849;SDS011;1940;51.052;13.678;2023-12-22T13:45:18;2.40;;;1.00;;
3849;SDS011;1940;51.052;13.678;2023-12-22T13:47:43;1.53;;;1.00;;
3849;SDS011;1940;51.052;13.678;2023-12-22T13:50:18;4.73;;;0.80;;
3849;SDS011;1940;51.052;13.678;2023-12-22T13:52:44;1.73;;;1.00;;
3849;SDS011;1940;51.052;13.678;2023-12-22T13:55:13;1.93;;;0.90;;
3849;SDS011;1940;51.052;13.678;2023-12-22T13:57:40;2.63;;;1.20;;
3849;SDS011;1940;51.052;13.678;2023-12-22T14:02:47;1.63;;;0.93;;
3849;SDS011;1940;51.052;13.678;2023-12-22T14:05:16;1.30;;;1.00;;
3849;SDS011;1940;51.052;13.678;2023-12-22T14:07:45;1.20;;;0.93;;
3849;SDS011;1940;51.052;13.678;2023-12-22T14:10:11;1.93;;;1.30;;
3849;SDS011;1940;51.052;13.678;2023-12-22T14:12:37;2.90;;;1.47;;
3849;SDS011;1940;51.052;13.678;2023-12-22T14:15:05;2.10;;;1.60;;
3849;SDS011;1940;51.052;13.678;2023-12-22T14:17:32;2.70;;;1.10;;
3849;SDS011;1940;51.052;13.678;2023-12-22T14:19:57;3.73;;;1.30;;
3849;SDS011;1940;51.052;13.678;2023-12-22T14:22:23;2.00;;;1.30;;
3849;SDS011;1940;51.052;13.678;2023-12-22T14:24:49;3.50;;;1.00;;
3849;SDS011;1940;51.052;13.678;2023-12-22T14:27:15;1.00;;;0.80;;
3849;SDS011;1940;51.052;13.678;2023-12-22T14:29:43;1.77;;;0.83;;
3849;SDS011;1940;51.052;13.678;2023-12-22T14:32:11;2.33;;;0.90;;
3849;SDS011;1940;51.052;13.678;2023-12-22T14:34:39;1.00;;;0.77;;
3849;SDS011;1940;51.052;13.678;2023-12-22T14:37:05;1.70;;;1.00;;
3849;SDS011;1940;51.052;13.678;2023-12-22T14:39:31;2.03;;;1.47;;
3849;SDS011;1940;51.052;13.678;2023-12-22T14:41:56;1.13;;;0.93;;
3849;SDS011;1940;51.052;13.678;2023-12-22T14:44:22;1.17;;;1.00;;
3849;SDS011;1940;51.052;13.678;2023-12-22T14:46:47;1.20;;;1.00;;
3849;SDS011;1940;51.052;13.678;2023-12-22T14:49:13;2.20;;;1.17;;
3849;SDS011;1940;51.052;13.678;2023-12-22T14:51:38;1.77;;;1.17;;
3849;SDS011;1940;51.052;13.678;2023-12-22T14:54:04;3.83;;;1.00;;
3849;SDS011;1940;51.052;13.678;2023-12-22T14:56:30;1.93;;;1.30;;
3849;SDS011;1940;51.052;13.678;2023-12-22T14:58:56;7.37;;;1.17;;
3849;SDS011;1940;51.052;13.678;2023-12-22T15:01:22;2.40;;;1.17;;
3849;SDS011;1940;51.052;13.678;2023-12-22T15:03:47;2.87;;;1.33;;
3849;SDS011;1940;51.052;13.678;2023-12-22T15:06:12;3.50;;;1.90;;